createdAt,value
2019-05-15T00:03:49.306Z,99.90
2019-05-15T00:08:54.957Z,99.90
2019-05-15T00:13:59.753Z,99.90
2019-05-15T00:19:04.627Z,99.90
2019-05-15T00:24:13.108Z,99.90
2019-05-15T00:29:17.450Z,99.90
2019-05-15T00:34:22.022Z,99.90
2019-05-15T00:39:28.356Z,99.90
2019-05-15T00:44:32.662Z,99.90
2019-05-15T00:49:38.274Z,99.90
2019-05-15T00:54:43.382Z,99.90
2019-05-15T00:59:48.402Z,99.90
2019-05-15T01:04:52.831Z,99.90
2019-05-15T01:09:57.950Z,99.90
2019-05-15T01:15:02.651Z,99.90
2019-05-15T01:20:08.451Z,99.90
2019-05-15T01:25:13.461Z,99.90
2019-05-15T01:30:18.243Z,99.90
2019-05-15T01:35:22.975Z,99.90
2019-05-15T01:40:28.944Z,99.90
2019-05-15T01:45:33.568Z,99.90
2019-05-15T01:50:38.953Z,99.90
2019-05-15T01:55:43.525Z,99.90
2019-05-15T02:00:48.464Z,99.90
2019-05-15T02:05:53.615Z,99.90
2019-05-15T02:10:58.955Z,99.90
2019-05-15T02:16:03.426Z,99.90
2019-05-15T02:21:10.281Z,99.90
2019-05-15T02:26:14.332Z,99.90
2019-05-15T02:31:19.801Z,99.90
2019-05-15T02:36:24.183Z,99.90
2019-05-15T02:41:29.821Z,99.90
2019-05-15T02:46:34.466Z,99.90
2019-05-15T02:51:39.873Z,99.90
2019-05-15T02:56:49.291Z,99.90
2019-05-15T03:01:52.791Z,99.90
2019-05-15T03:07:00.318Z,99.90
2019-05-15T03:12:04.499Z,99.90
2019-05-15T03:17:09.758Z,99.90
2019-05-15T03:22:14.501Z,99.90
2019-05-15T03:27:19.858Z,99.90
2019-05-15T03:32:34.416Z,99.90
2019-05-15T03:37:33.609Z,99.90
2019-05-15T03:42:39.483Z,99.90
2019-05-15T03:47:43.970Z,99.90
2019-05-15T03:52:49.673Z,99.90
2019-05-15T03:57:54.259Z,99.90
2019-05-15T04:02:59.249Z,99.90
2019-05-15T04:08:03.821Z,99.90
2019-05-15T04:13:10.052Z,99.90
2019-05-15T04:18:15.024Z,99.90
2019-05-15T04:23:24.164Z,99.90
2019-05-15T04:28:30.909Z,99.90
2019-05-15T04:33:35.427Z,99.90
2019-05-15T04:38:40.142Z,99.90
2019-05-15T04:43:45.306Z,99.90
2019-05-15T04:48:50.757Z,99.90
2019-05-15T04:53:58.473Z,99.90
2019-05-15T04:59:02.195Z,99.90
2019-05-15T05:04:09.415Z,99.90
2019-05-15T05:09:13.438Z,99.90
2019-05-15T05:14:18.874Z,99.90
2019-05-15T05:19:23.291Z,99.90
2019-05-15T05:24:29.500Z,99.90
2019-05-15T05:29:34.328Z,99.90
2019-05-15T05:34:40.045Z,99.90
2019-05-15T05:39:44.844Z,99.90
2019-05-15T05:44:49.473Z,99.90
2019-05-15T05:49:54.327Z,99.90
2019-05-15T05:54:59.313Z,99.90
2019-05-15T06:00:04.726Z,99.90
2019-05-15T06:05:10.320Z,99.90
2019-05-15T06:10:15.156Z,95.20
2019-05-15T06:15:19.657Z,81.50
2019-05-15T06:20:24.629Z,67.70
2019-05-15T06:25:30.522Z,69.20
2019-05-15T06:30:38.436Z,71.20
2019-05-15T06:35:41.797Z,75.60
2019-05-15T06:40:48.520Z,70.80
2019-05-15T06:45:53.277Z,68.40
2019-05-15T06:50:58.078Z,60.30
2019-05-15T06:56:02.844Z,66.20
2019-05-15T07:01:08.824Z,63.60
2019-05-15T07:06:13.544Z,63.80
2019-05-15T07:11:19.135Z,61.90
2019-05-15T07:16:23.808Z,60.00
2019-05-15T07:21:28.636Z,61.20
2019-05-15T07:26:33.951Z,60.40
2019-05-15T07:31:38.692Z,62.20
2019-05-15T07:36:43.164Z,58.40
2019-05-15T07:41:48.464Z,58.40
2019-05-15T07:46:53.285Z,56.20
2019-05-15T07:51:59.173Z,56.20
2019-05-15T07:57:04.319Z,59.20
2019-05-15T08:02:08.912Z,56.80
2019-05-15T08:07:13.352Z,55.10
2019-05-15T08:12:19.347Z,56.40
2019-05-15T08:17:24.047Z,57.00
2019-05-15T08:22:28.708Z,57.00
2019-05-15T08:27:34.266Z,58.90
2019-05-15T08:32:39.056Z,60.00
2019-05-15T08:37:43.629Z,61.90
2019-05-15T08:42:57.484Z,57.00
2019-05-15T08:47:54.688Z,56.60
2019-05-15T08:52:59.101Z,57.40
2019-05-15T08:58:08.334Z,54.60
2019-05-15T09:03:10.493Z,57.60
2019-05-15T09:08:15.364Z,55.20
2019-05-15T09:13:19.874Z,55.30
2019-05-15T09:18:28.359Z,53.80
2019-05-15T09:23:33.053Z,56.30
2019-05-15T09:28:39.061Z,55.00
2019-05-15T09:33:43.498Z,56.10
2019-05-15T09:38:49.240Z,54.30
2019-05-15T09:43:53.984Z,53.30
2019-05-15T09:48:59.307Z,53.30
2019-05-15T09:54:04.355Z,54.00
2019-05-15T09:59:09.228Z,56.70
2019-05-15T10:04:13.998Z,53.70
2019-05-15T10:09:19.791Z,58.10
2019-05-15T10:14:24.391Z,54.70
2019-05-15T10:19:29.083Z,54.80
2019-05-15T10:24:33.629Z,56.70
2019-05-15T10:29:38.770Z,57.60
2019-05-15T10:34:44.335Z,59.70
2019-05-15T10:39:52.632Z,57.80
2019-05-15T10:44:55.285Z,59.70
2019-05-15T10:50:00.254Z,63.40
2019-05-15T10:55:04.909Z,60.20
2019-05-15T11:00:10.175Z,61.70
2019-05-15T11:05:17.864Z,59.60
2019-05-15T11:10:21.822Z,61.00
2019-05-15T11:15:28.930Z,62.60
2019-05-15T11:20:33.008Z,62.50
2019-05-15T11:25:38.071Z,66.00
2019-05-15T11:30:43.201Z,64.70
2019-05-15T11:35:57.920Z,62.30
2019-05-15T11:40:53.933Z,62.40
2019-05-15T11:45:59.223Z,59.10
2019-05-15T11:51:03.759Z,56.20
2019-05-15T11:56:09.465Z,58.70
2019-05-15T12:01:14.356Z,63.20
2019-05-15T12:06:22.810Z,62.10
2019-05-15T12:11:33.270Z,61.80
2019-05-15T12:16:31.358Z,59.50
2019-05-15T12:21:35.699Z,59.30
2019-05-15T12:26:41.452Z,60.60
2019-05-15T12:31:45.871Z,59.30
2019-05-15T12:36:56.774Z,63.70
2019-05-15T13:02:21.971Z,58.60
2019-05-15T13:07:28.548Z,58.70
2019-05-15T13:12:33.514Z,59.30
2019-05-15T13:17:38.948Z,61.20
2019-05-15T13:22:44.038Z,63.80
2019-05-15T13:27:48.982Z,58.40
2019-05-15T13:32:53.853Z,57.20
2019-05-15T13:37:58.735Z,59.30
2019-05-15T13:43:03.576Z,58.50
2019-05-15T13:48:08.982Z,61.20
2019-05-15T13:53:13.907Z,60.40
2019-05-15T13:58:18.568Z,62.20
2019-05-15T14:03:23.850Z,60.90
2019-05-15T14:08:28.759Z,60.70
2019-05-15T14:13:34.581Z,61.50
2019-05-15T14:18:39.316Z,59.80
2019-05-15T14:23:44.005Z,61.50
2019-05-15T14:28:48.933Z,64.60
2019-05-15T14:33:53.773Z,64.60
2019-05-15T14:38:58.736Z,62.50
2019-05-15T14:44:14.614Z,63.60
2019-05-15T14:49:10.510Z,62.60
2019-05-15T14:54:15.099Z,67.30
2019-05-15T14:59:19.879Z,65.00
2019-05-15T15:04:24.509Z,65.00
2019-05-15T15:09:29.261Z,64.40
2019-05-15T15:14:34.619Z,65.50
2019-05-15T15:19:39.808Z,65.20
2019-05-15T15:24:45.360Z,64.60
2019-05-15T15:29:51.212Z,62.90
2019-05-15T15:34:55.667Z,66.50
2019-05-15T15:40:00.032Z,66.20
2019-05-15T15:45:05.157Z,65.50
2019-05-15T15:50:10.088Z,66.20
2019-05-15T15:55:15.078Z,66.80
2019-05-15T16:00:19.916Z,66.60
2019-05-15T16:05:24.627Z,67.10
2019-05-15T16:10:29.264Z,66.90
2019-05-15T16:15:33.887Z,69.90
2019-05-15T16:20:39.672Z,66.20
2019-05-15T16:25:44.683Z,68.40
2019-05-15T16:30:51.515Z,67.50
2019-05-15T16:35:55.462Z,67.60
2019-05-15T16:41:00.607Z,68.30
2019-05-15T16:46:05.500Z,69.30
2019-05-15T16:51:10.168Z,69.00
2019-05-15T16:56:15.214Z,69.80
2019-05-15T17:01:20.384Z,71.20
2019-05-15T17:06:27.946Z,70.80
2019-05-15T17:11:32.238Z,71.20
2019-05-15T17:16:38.719Z,72.10
2019-05-15T17:21:43.791Z,69.90
2019-05-15T17:26:48.683Z,71.00
2019-05-15T17:31:54.488Z,71.80
2019-05-15T17:36:59.423Z,72.30
2019-05-15T17:42:04.480Z,73.90
2019-05-15T17:47:09.841Z,76.00
2019-05-15T17:52:14.588Z,77.10
2019-05-15T17:57:19.952Z,77.60
2019-05-15T18:02:25.079Z,79.40
2019-05-15T18:07:30.020Z,81.60
2019-05-15T18:12:34.829Z,83.50
2019-05-15T18:17:41.648Z,86.50
2019-05-15T18:22:48.023Z,88.00
2019-05-15T18:27:52.382Z,87.30
2019-05-15T18:32:58.811Z,88.90
2019-05-15T18:38:03.760Z,88.70
2019-05-15T18:43:10.057Z,90.60
2019-05-15T18:48:14.785Z,90.20
2019-05-15T18:53:19.436Z,91.40
2019-05-15T18:58:23.874Z,92.80
2019-05-15T19:03:28.691Z,93.70
2019-05-15T19:08:33.608Z,93.40
2019-05-15T19:13:39.039Z,93.50
2019-05-15T19:18:44.093Z,93.40
2019-05-15T19:23:49.148Z,93.50
2019-05-15T19:28:53.731Z,92.90
2019-05-15T19:33:58.322Z,93.50
2019-05-15T19:39:04.938Z,93.20
2019-05-15T19:44:09.364Z,92.80
2019-05-15T19:49:14.221Z,92.70
2019-05-15T19:54:19.470Z,92.40
2019-05-15T19:59:24.388Z,92.90
2019-05-15T20:04:29.040Z,92.30
2019-05-15T20:09:33.625Z,93.20
2019-05-15T20:14:38.563Z,93.60
2019-05-15T20:19:44.146Z,93.50
2019-05-15T20:24:48.857Z,94.00
2019-05-15T20:29:53.404Z,94.40
2019-05-15T20:34:58.179Z,95.70
2019-05-15T20:40:03.158Z,96.90
2019-05-15T20:45:11.249Z,97.60
2019-05-15T20:50:14.393Z,97.80
2019-05-15T20:55:19.216Z,98.60
2019-05-15T21:00:24.245Z,99.90
2019-05-15T21:05:28.952Z,99.90
2019-05-15T21:10:34.004Z,99.90
2019-05-15T21:15:38.469Z,99.90
2019-05-15T21:20:43.268Z,99.90
2019-05-15T21:25:48.502Z,99.90
2019-05-15T21:30:53.260Z,99.90
2019-05-15T21:35:58.390Z,99.90
2019-05-15T21:41:03.004Z,99.90
2019-05-15T21:46:08.520Z,99.90
2019-05-15T21:51:13.304Z,99.90
2019-05-15T21:56:18.819Z,99.90
2019-05-15T22:01:23.716Z,99.90
2019-05-15T22:06:29.264Z,99.90
2019-05-15T22:11:34.221Z,99.90
2019-05-15T22:16:39.514Z,99.90
2019-05-15T22:21:44.030Z,99.90
2019-05-15T22:26:49.156Z,99.90
2019-05-15T22:31:53.901Z,99.90
2019-05-15T22:36:58.972Z,99.90
2019-05-15T22:42:04.132Z,99.90
2019-05-15T22:47:08.801Z,99.90
2019-05-15T22:52:13.236Z,99.90
2019-05-15T22:57:17.882Z,99.90
2019-05-15T23:02:22.368Z,99.90
2019-05-15T23:07:28.155Z,99.90
2019-05-15T23:12:32.915Z,99.90
2019-05-15T23:17:38.353Z,99.90
2019-05-15T23:22:42.853Z,99.90
2019-05-15T23:27:48.422Z,99.90
2019-05-15T23:32:53.506Z,99.90
2019-05-15T23:37:58.367Z,99.90
2019-05-15T23:43:03.246Z,99.90
2019-05-15T23:48:07.688Z,99.90
2019-05-15T23:53:13.370Z,99.90
2019-05-15T23:58:18.917Z,99.90
